sensor_id;sensor_type;location;lat;lon;timestamp;temperature;humidity
34768;DHT22;21755;43.608;1.236;2023-02-28T00:00:17;1.10;99.90
34768;DHT22;21755;43.608;1.236;2023-02-28T00:02:43;1.00;99.90
34768;DHT22;21755;43.608;1.236;2023-02-28T00:05:12;1.00;99.90
34768;DHT22;21755;43.608;1.236;2023-02-28T00:07:38;1.00;99.90
34768;DHT22;21755;43.608;1.236;2023-02-28T00:10:06;1.00;99.90
34768;DHT22;21755;43.608;1.236;2023-02-28T00:12:33;1.00;99.90
34768;DHT22;21755;43.608;1.236;2023-02-28T00:14:59;1.00;99.90
34768;DHT22;21755;43.608;1.236;2023-02-28T00:17:25;1.00;99.90
34768;DHT22;21755;43.608;1.236;2023-02-28T00:19:51;1.00;99.90
34768;DHT22;21755;43.608;1.236;2023-02-28T00:22:19;1.00;99.90
34768;DHT22;21755;43.608;1.236;2023-02-28T00:24:46;0.90;99.90
34768;DHT22;21755;43.608;1.236;2023-02-28T00:27:13;0.90;99.90
34768;DHT22;21755;43.608;1.236;2023-02-28T00:29:39;0.90;99.90
34768;DHT22;21755;43.608;1.236;2023-02-28T00:32:06;0.90;99.90
34768;DHT22;21755;43.608;1.236;2023-02-28T00:34:32;0.90;99.90
34768;DHT22;21755;43.608;1.236;2023-02-28T00:37:07;0.90;99.90
34768;DHT22;21755;43.608;1.236;2023-02-28T00:39:35;0.90;99.90
34768;DHT22;21755;43.608;1.236;2023-02-28T00:42:02;0.80;99.90
34768;DHT22;21755;43.608;1.236;2023-02-28T00:44:29;0.80;99.90
34768;DHT22;21755;43.608;1.236;2023-02-28T00:46:55;0.90;99.90
34768;DHT22;21755;43.608;1.236;2023-02-28T00:49:22;0.80;99.90
34768;DHT22;21755;43.608;1.236;2023-02-28T00:51:48;0.80;99.90
34768;DHT22;21755;43.608;1.236;2023-02-28T00:54:15;0.80;99.90
34768;DHT22;21755;43.608;1.236;2023-02-28T00:56:40;0.70;99.90
34768;DHT22;21755;43.608;1.236;2023-02-28T00:59:06;0.80;99.90
34768;DHT22;21755;43.608;1.236;2023-02-28T01:01:32;0.80;99.90
34768;DHT22;21755;43.608;1.236;2023-02-28T01:03:58;0.70;99.90
34768;DHT22;21755;43.608;1.236;2023-02-28T01:06:24;0.70;99.90
34768;DHT22;21755;43.608;1.236;2023-02-28T01:08:50;0.70;99.90
34768;DHT22;21755;43.608;1.236;2023-02-28T01:11:17;0.70;99.90
34768;DHT22;21755;43.608;1.236;2023-02-28T01:13:45;0.70;99.90
34768;DHT22;21755;43.608;1.236;2023-02-28T01:16:12;0.70;99.90
34768;DHT22;21755;43.608;1.236;2023-02-28T01:18:39;0.70;99.90
34768;DHT22;21755;43.608;1.236;2023-02-28T01:21:06;0.70;99.90
34768;DHT22;21755;43.608;1.236;2023-02-28T01:23:33;0.80;99.90
34768;DHT22;21755;43.608;1.236;2023-02-28T01:26:11;0.80;99.90
34768;DHT22;21755;43.608;1.236;2023-02-28T01:28:37;0.80;99.90
34768;DHT22;21755;43.608;1.236;2023-02-28T01:31:03;0.80;99.90
34768;DHT22;21755;43.608;1.236;2023-02-28T01:33:29;0.80;99.90
34768;DHT22;21755;43.608;1.236;2023-02-28T01:35:59;0.80;99.90
34768;DHT22;21755;43.608;1.236;2023-02-28T01:38:25;0.80;99.90
34768;DHT22;21755;43.608;1.236;2023-02-28T01:40:51;0.90;99.90
34768;DHT22;21755;43.608;1.236;2023-02-28T01:43:28;0.90;99.90
34768;DHT22;21755;43.608;1.236;2023-02-28T01:45:56;0.90;99.90
34768;DHT22;21755;43.608;1.236;2023-02-28T01:48:26;1.00;99.90
34768;DHT22;21755;43.608;1.236;2023-02-28T01:50:53;1.10;99.90
34768;DHT22;21755;43.608;1.236;2023-02-28T01:53:25;1.10;99.90
34768;DHT22;21755;43.608;1.236;2023-02-28T01:55:53;1.10;99.90
34768;DHT22;21755;43.608;1.236;2023-02-28T01:58:19;1.10;99.90
34768;DHT22;21755;43.608;1.236;2023-02-28T02:00:45;1.10;99.90
34768;DHT22;21755;43.608;1.236;2023-02-28T02:03:16;1.20;99.90
34768;DHT22;21755;43.608;1.236;2023-02-28T02:05:45;1.20;99.90
34768;DHT22;21755;43.608;1.236;2023-02-28T02:08:20;1.20;99.90
34768;DHT22;21755;43.608;1.236;2023-02-28T02:10:53;1.20;99.90
34768;DHT22;21755;43.608;1.236;2023-02-28T02:24:46;1.30;99.90
34768;DHT22;21755;43.608;1.236;2023-02-28T02:27:38;1.30;99.90
34768;DHT22;21755;43.608;1.236;2023-02-28T02:30:36;1.30;99.90
34768;DHT22;21755;43.608;1.236;2023-02-28T02:35:56;1.30;99.90
34768;DHT22;21755;43.608;1.236;2023-02-28T02:38:34;1.30;99.90
34768;DHT22;21755;43.608;1.236;2023-02-28T02:43:49;1.30;99.90
34768;DHT22;21755;43.608;1.236;2023-02-28T02:46:26;1.30;99.90
34768;DHT22;21755;43.608;1.236;2023-02-28T02:48:55;1.30;99.90
34768;DHT22;21755;43.608;1.236;2023-02-28T02:51:23;1.30;99.90
34768;DHT22;21755;43.608;1.236;2023-02-28T02:53:59;1.40;99.90
34768;DHT22;21755;43.608;1.236;2023-02-28T02:56:28;1.40;99.90
34768;DHT22;21755;43.608;1.236;2023-02-28T02:58:59;1.40;99.90
34768;DHT22;21755;43.608;1.236;2023-02-28T03:01:29;1.40;99.90
34768;DHT22;21755;43.608;1.236;2023-02-28T03:03:58;1.40;99.90
34768;DHT22;21755;43.608;1.236;2023-02-28T03:06:25;1.40;99.90
34768;DHT22;21755;43.608;1.236;2023-02-28T03:08:51;1.40;99.90
34768;DHT22;21755;43.608;1.236;2023-02-28T03:11:17;1.40;99.90
34768;DHT22;21755;43.608;1.236;2023-02-28T03:22:04;1.30;99.90
34768;DHT22;21755;43.608;1.236;2023-02-28T03:24:55;1.40;99.90
34768;DHT22;21755;43.608;1.236;2023-02-28T03:27:52;1.40;99.90
34768;DHT22;21755;43.608;1.236;2023-02-28T03:33:19;1.40;99.90
34768;DHT22;21755;43.608;1.236;2023-02-28T03:35:55;1.40;99.90
34768;DHT22;21755;43.608;1.236;2023-02-28T03:38:47;1.40;99.90
34768;DHT22;21755;43.608;1.236;2023-02-28T03:41:35;1.40;99.90
34768;DHT22;21755;43.608;1.236;2023-02-28T03:44:11;1.40;99.90
34768;DHT22;21755;43.608;1.236;2023-02-28T03:46:46;1.40;99.90
34768;DHT22;21755;43.608;1.236;2023-02-28T03:49:40;1.40;99.90
34768;DHT22;21755;43.608;1.236;2023-02-28T03:52:09;1.40;99.90
34768;DHT22;21755;43.608;1.236;2023-02-28T03:54:42;1.30;99.90
34768;DHT22;21755;43.608;1.236;2023-02-28T03:57:32;1.40;99.90
34768;DHT22;21755;43.608;1.236;2023-02-28T04:00:08;1.40;99.90
34768;DHT22;21755;43.608;1.236;2023-02-28T04:02:35;1.40;99.90
34768;DHT22;21755;43.608;1.236;2023-02-28T04:05:01;1.30;99.90
34768;DHT22;21755;43.608;1.236;2023-02-28T04:07:31;1.30;99.90
34768;DHT22;21755;43.608;1.236;2023-02-28T04:09:57;1.30;99.90
34768;DHT22;21755;43.608;1.236;2023-02-28T04:12:23;1.30;99.90
34768;DHT22;21755;43.608;1.236;2023-02-28T04:14:49;1.30;99.90
34768;DHT22;21755;43.608;1.236;2023-02-28T04:17:16;1.30;99.90
34768;DHT22;21755;43.608;1.236;2023-02-28T04:19:42;1.30;99.90
34768;DHT22;21755;43.608;1.236;2023-02-28T04:22:09;1.30;99.90
34768;DHT22;21755;43.608;1.236;2023-02-28T04:24:35;1.20;99.90
34768;DHT22;21755;43.608;1.236;2023-02-28T04:27:01;1.20;99.90
34768;DHT22;21755;43.608;1.236;2023-02-28T04:29:29;1.20;99.90
34768;DHT22;21755;43.608;1.236;2023-02-28T04:31:56;1.20;99.90
34768;DHT22;21755;43.608;1.236;2023-02-28T04:34:26;1.10;99.90
34768;DHT22;21755;43.608;1.236;2023-02-28T04:36:53;1.10;99.90
34768;DHT22;21755;43.608;1.236;2023-02-28T04:39:24;1.00;99.90
34768;DHT22;21755;43.608;1.236;2023-02-28T04:41:50;1.00;99.90
34768;DHT22;21755;43.608;1.236;2023-02-28T04:44:16;1.00;99.90
34768;DHT22;21755;43.608;1.236;2023-02-28T04:46:43;0.90;99.90
34768;DHT22;21755;43.608;1.236;2023-02-28T04:49:12;0.90;99.90
34768;DHT22;21755;43.608;1.236;2023-02-28T04:51:39;0.90;99.90
34768;DHT22;21755;43.608;1.236;2023-02-28T04:54:05;0.90;99.90
34768;DHT22;21755;43.608;1.236;2023-02-28T04:56:31;0.80;99.90
34768;DHT22;21755;43.608;1.236;2023-02-28T04:58:57;0.90;99.90
34768;DHT22;21755;43.608;1.236;2023-02-28T05:01:26;0.90;99.90
34768;DHT22;21755;43.608;1.236;2023-02-28T05:03:54;0.80;99.90
34768;DHT22;21755;43.608;1.236;2023-02-28T05:06:22;0.80;99.90
34768;DHT22;21755;43.608;1.236;2023-02-28T05:08:49;0.80;99.90
34768;DHT22;21755;43.608;1.236;2023-02-28T05:11:25;0.80;99.90
34768;DHT22;21755;43.608;1.236;2023-02-28T05:13:52;0.80;99.90
34768;DHT22;21755;43.608;1.236;2023-02-28T05:16:19;0.80;99.90
34768;DHT22;21755;43.608;1.236;2023-02-28T05:18:45;0.70;99.90
34768;DHT22;21755;43.608;1.236;2023-02-28T05:21:34;0.70;99.90
34768;DHT22;21755;43.608;1.236;2023-02-28T05:24:05;0.70;99.90
34768;DHT22;21755;43.608;1.236;2023-02-28T05:26:35;0.70;99.90
34768;DHT22;21755;43.608;1.236;2023-02-28T05:29:01;0.70;99.90
34768;DHT22;21755;43.608;1.236;2023-02-28T05:31:27;0.60;99.90
34768;DHT22;21755;43.608;1.236;2023-02-28T05:33:53;0.60;99.90
34768;DHT22;21755;43.608;1.236;2023-02-28T05:36:19;0.60;99.90
34768;DHT22;21755;43.608;1.236;2023-02-28T05:38:47;0.60;99.90
34768;DHT22;21755;43.608;1.236;2023-02-28T05:41:14;0.60;99.90
34768;DHT22;21755;43.608;1.236;2023-02-28T05:43:40;0.60;99.90
34768;DHT22;21755;43.608;1.236;2023-02-28T05:46:07;0.50;99.90
34768;DHT22;21755;43.608;1.236;2023-02-28T05:48:35;0.50;99.90
34768;DHT22;21755;43.608;1.236;2023-02-28T05:51:02;0.60;99.90
34768;DHT22;21755;43.608;1.236;2023-02-28T05:53:28;0.50;99.90
34768;DHT22;21755;43.608;1.236;2023-02-28T05:55:54;0.50;99.90
34768;DHT22;21755;43.608;1.236;2023-02-28T05:58:21;0.50;99.90
34768;DHT22;21755;43.608;1.236;2023-02-28T06:00:47;0.50;99.90
34768;DHT22;21755;43.608;1.236;2023-02-28T06:03:13;0.50;99.90
34768;DHT22;21755;43.608;1.236;2023-02-28T06:05:39;0.50;99.90
34768;DHT22;21755;43.608;1.236;2023-02-28T06:08:05;0.50;99.90
34768;DHT22;21755;43.608;1.236;2023-02-28T06:10:34;0.40;99.90
34768;DHT22;21755;43.608;1.236;2023-02-28T06:13:01;0.40;99.90
34768;DHT22;21755;43.608;1.236;2023-02-28T06:15:30;0.40;99.90
34768;DHT22;21755;43.608;1.236;2023-02-28T06:17:57;0.40;99.90
34768;DHT22;21755;43.608;1.236;2023-02-28T06:20:24;0.30;99.90
34768;DHT22;21755;43.608;1.236;2023-02-28T06:22:50;0.30;99.90
34768;DHT22;21755;43.608;1.236;2023-02-28T06:25:17;0.30;99.90
34768;DHT22;21755;43.608;1.236;2023-02-28T06:27:43;0.30;99.90
34768;DHT22;21755;43.608;1.236;2023-02-28T06:30:10;0.30;99.90
34768;DHT22;21755;43.608;1.236;2023-02-28T06:32:37;0.30;99.90
34768;DHT22;21755;43.608;1.236;2023-02-28T06:35:03;0.30;99.90
34768;DHT22;21755;43.608;1.236;2023-02-28T06:37:31;0.20;99.90
34768;DHT22;21755;43.608;1.236;2023-02-28T06:39:57;0.20;99.90
34768;DHT22;21755;43.608;1.236;2023-02-28T06:42:24;0.20;99.90
34768;DHT22;21755;43.608;1.236;2023-02-28T06:44:55;0.20;99.90
34768;DHT22;21755;43.608;1.236;2023-02-28T06:47:21;0.20;99.90
34768;DHT22;21755;43.608;1.236;2023-02-28T06:49:47;0.20;99.90
34768;DHT22;21755;43.608;1.236;2023-02-28T06:52:13;0.20;99.90
34768;DHT22;21755;43.608;1.236;2023-02-28T06:54:39;0.20;99.90
34768;DHT22;21755;43.608;1.236;2023-02-28T06:57:05;0.10;99.90
34768;DHT22;21755;43.608;1.236;2023-02-28T06:59:31;0.10;99.90
34768;DHT22;21755;43.608;1.236;2023-02-28T07:01:57;0.10;99.90
34768;DHT22;21755;43.608;1.236;2023-02-28T07:04:23;0.10;99.90
34768;DHT22;21755;43.608;1.236;2023-02-28T07:06:49;0.10;99.90
34768;DHT22;21755;43.608;1.236;2023-02-28T07:09:15;0.10;99.90
34768;DHT22;21755;43.608;1.236;2023-02-28T07:11:41;0.10;99.90
34768;DHT22;21755;43.608;1.236;2023-02-28T07:14:08;0.10;99.90
34768;DHT22;21755;43.608;1.236;2023-02-28T07:16:35;0.00;99.90
34768;DHT22;21755;43.608;1.236;2023-02-28T07:19:01;0.10;99.90
34768;DHT22;21755;43.608;1.236;2023-02-28T07:21:27;0.00;99.90
34768;DHT22;21755;43.608;1.236;2023-02-28T07:23:53;0.10;99.90
34768;DHT22;21755;43.608;1.236;2023-02-28T07:26:20;0.20;99.90
34768;DHT22;21755;43.608;1.236;2023-02-28T07:28:47;0.20;99.90
34768;DHT22;21755;43.608;1.236;2023-02-28T07:31:14;0.40;99.90
34768;DHT22;21755;43.608;1.236;2023-02-28T07:33:41;0.40;99.90
34768;DHT22;21755;43.608;1.236;2023-02-28T07:36:09;0.50;99.90
34768;DHT22;21755;43.608;1.236;2023-02-28T07:38:41;0.60;99.90
34768;DHT22;21755;43.608;1.236;2023-02-28T07:41:08;0.70;99.90
34768;DHT22;21755;43.608;1.236;2023-02-28T07:43:34;0.80;99.90
34768;DHT22;21755;43.608;1.236;2023-02-28T07:46:09;0.90;99.90
34768;DHT22;21755;43.608;1.236;2023-02-28T07:48:35;1.00;99.90
34768;DHT22;21755;43.608;1.236;2023-02-28T07:51:01;1.10;99.90
34768;DHT22;21755;43.608;1.236;2023-02-28T07:53:28;1.20;99.90
34768;DHT22;21755;43.608;1.236;2023-02-28T07:55:58;2.00;99.90
34768;DHT22;21755;43.608;1.236;2023-02-28T07:58:26;2.10;99.90
34768;DHT22;21755;43.608;1.236;2023-02-28T08:00:52;1.90;99.90
34768;DHT22;21755;43.608;1.236;2023-02-28T08:03:19;1.80;99.90
34768;DHT22;21755;43.608;1.236;2023-02-28T08:05:45;1.80;99.90
34768;DHT22;21755;43.608;1.236;2023-02-28T08:08:12;1.80;99.90
34768;DHT22;21755;43.608;1.236;2023-02-28T08:10:38;1.80;99.90
34768;DHT22;21755;43.608;1.236;2023-02-28T08:13:03;1.90;99.90
34768;DHT22;21755;43.608;1.236;2023-02-28T08:15:29;1.80;99.90
34768;DHT22;21755;43.608;1.236;2023-02-28T08:17:55;1.80;99.90
34768;DHT22;21755;43.608;1.236;2023-02-28T08:20:22;1.80;99.90
34768;DHT22;21755;43.608;1.236;2023-02-28T08:22:48;1.90;99.90
34768;DHT22;21755;43.608;1.236;2023-02-28T08:25:14;2.00;99.90
34768;DHT22;21755;43.608;1.236;2023-02-28T08:27:40;2.10;99.90
34768;DHT22;21755;43.608;1.236;2023-02-28T08:30:07;2.10;99.90
34768;DHT22;21755;43.608;1.236;2023-02-28T08:32:33;2.10;99.90
34768;DHT22;21755;43.608;1.236;2023-02-28T08:34:59;2.20;99.90
34768;DHT22;21755;43.608;1.236;2023-02-28T08:37:25;2.20;99.90
34768;DHT22;21755;43.608;1.236;2023-02-28T08:39:51;2.20;99.90
34768;DHT22;21755;43.608;1.236;2023-02-28T08:42:17;2.30;99.90
34768;DHT22;21755;43.608;1.236;2023-02-28T08:44:43;2.40;99.90
34768;DHT22;21755;43.608;1.236;2023-02-28T08:47:09;2.60;99.90
34768;DHT22;21755;43.608;1.236;2023-02-28T08:49:35;2.70;99.90
34768;DHT22;21755;43.608;1.236;2023-02-28T08:52:01;2.70;99.90
34768;DHT22;21755;43.608;1.236;2023-02-28T08:54:27;2.80;99.90
34768;DHT22;21755;43.608;1.236;2023-02-28T08:56:56;2.80;99.90
34768;DHT22;21755;43.608;1.236;2023-02-28T08:59:22;2.90;99.90
34768;DHT22;21755;43.608;1.236;2023-02-28T09:01:48;3.00;99.90
34768;DHT22;21755;43.608;1.236;2023-02-28T09:04:14;2.80;99.90
34768;DHT22;21755;43.608;1.236;2023-02-28T09:06:40;3.00;99.90
34768;DHT22;21755;43.608;1.236;2023-02-28T09:09:06;3.00;99.90
34768;DHT22;21755;43.608;1.236;2023-02-28T09:11:34;2.90;99.90
34768;DHT22;21755;43.608;1.236;2023-02-28T09:14:01;2.90;99.90
34768;DHT22;21755;43.608;1.236;2023-02-28T09:16:29;2.90;99.90
34768;DHT22;21755;43.608;1.236;2023-02-28T09:18:56;2.90;99.90
34768;DHT22;21755;43.608;1.236;2023-02-28T09:21:22;3.10;99.90
34768;DHT22;21755;43.608;1.236;2023-02-28T09:23:50;3.20;99.90
34768;DHT22;21755;43.608;1.236;2023-02-28T09:26:27;3.20;99.90
34768;DHT22;21755;43.608;1.236;2023-02-28T09:28:54;3.30;99.90
34768;DHT22;21755;43.608;1.236;2023-02-28T09:31:25;3.40;99.90
34768;DHT22;21755;43.608;1.236;2023-02-28T09:33:54;3.60;99.90
34768;DHT22;21755;43.608;1.236;2023-02-28T09:36:21;3.70;99.90
34768;DHT22;21755;43.608;1.236;2023-02-28T09:38:47;3.80;99.90
34768;DHT22;21755;43.608;1.236;2023-02-28T09:41:21;3.90;99.90
34768;DHT22;21755;43.608;1.236;2023-02-28T09:43:52;3.80;99.90
34768;DHT22;21755;43.608;1.236;2023-02-28T09:48:51;4.00;99.90
34768;DHT22;21755;43.608;1.236;2023-02-28T09:51:46;4.20;99.90
34768;DHT22;21755;43.608;1.236;2023-02-28T09:54:24;4.30;99.90
34768;DHT22;21755;43.608;1.236;2023-02-28T09:56:57;4.40;99.90
34768;DHT22;21755;43.608;1.236;2023-02-28T10:05:05;4.40;99.90
34768;DHT22;21755;43.608;1.236;2023-02-28T10:07:47;4.50;99.90
34768;DHT22;21755;43.608;1.236;2023-02-28T10:10:30;4.40;99.90
34768;DHT22;21755;43.608;1.236;2023-02-28T10:13:01;4.40;99.90
34768;DHT22;21755;43.608;1.236;2023-02-28T10:15:31;4.50;99.90
34768;DHT22;21755;43.608;1.236;2023-02-28T10:18:02;4.40;99.90
34768;DHT22;21755;43.608;1.236;2023-02-28T10:20:33;4.60;99.90
34768;DHT22;21755;43.608;1.236;2023-02-28T10:23:21;4.50;99.90
34768;DHT22;21755;43.608;1.236;2023-02-28T10:26:03;4.50;99.90
34768;DHT22;21755;43.608;1.236;2023-02-28T10:28:31;4.50;99.90
34768;DHT22;21755;43.608;1.236;2023-02-28T10:30:57;4.60;99.90
34768;DHT22;21755;43.608;1.236;2023-02-28T10:33:35;4.60;99.90
34768;DHT22;21755;43.608;1.236;2023-02-28T10:36:02;4.70;99.90
34768;DHT22;21755;43.608;1.236;2023-02-28T10:38:34;4.80;99.90
34768;DHT22;21755;43.608;1.236;2023-02-28T10:41:09;5.00;99.90
34768;DHT22;21755;43.608;1.236;2023-02-28T10:43:39;4.90;99.90
34768;DHT22;21755;43.608;1.236;2023-02-28T10:46:12;5.20;99.90
34768;DHT22;21755;43.608;1.236;2023-02-28T10:49:12;5.10;99.90
34768;DHT22;21755;43.608;1.236;2023-02-28T10:51:40;5.30;99.90
34768;DHT22;21755;43.608;1.236;2023-02-28T10:54:19;5.20;99.90
34768;DHT22;21755;43.608;1.236;2023-02-28T10:56:50;5.40;99.90
34768;DHT22;21755;43.608;1.236;2023-02-28T10:59:31;5.40;99.90
34768;DHT22;21755;43.608;1.236;2023-02-28T11:01:57;5.20;99.90
34768;DHT22;21755;43.608;1.236;2023-02-28T11:07:04;5.30;99.90
34768;DHT22;21755;43.608;1.236;2023-02-28T11:09:38;4.80;99.90
34768;DHT22;21755;43.608;1.236;2023-02-28T11:12:19;5.00;99.90
34768;DHT22;21755;43.608;1.236;2023-02-28T11:14:52;5.30;99.90
34768;DHT22;21755;43.608;1.236;2023-02-28T11:17:22;5.40;99.90
34768;DHT22;21755;43.608;1.236;2023-02-28T11:19:55;5.70;99.90
34768;DHT22;21755;43.608;1.236;2023-02-28T11:22:38;5.70;99.90
34768;DHT22;21755;43.608;1.236;2023-02-28T11:25:30;5.70;99.90
34768;DHT22;21755;43.608;1.236;2023-02-28T11:28:01;5.70;99.90
34768;DHT22;21755;43.608;1.236;2023-02-28T11:30:36;5.80;99.90
34768;DHT22;21755;43.608;1.236;2023-02-28T11:35:48;5.50;99.90
34768;DHT22;21755;43.608;1.236;2023-02-28T11:38:14;5.30;99.90
34768;DHT22;21755;43.608;1.236;2023-02-28T11:40:47;5.30;99.90
34768;DHT22;21755;43.608;1.236;2023-02-28T11:49:30;5.60;99.90
34768;DHT22;21755;43.608;1.236;2023-02-28T11:57:32;6.00;99.90
34768;DHT22;21755;43.608;1.236;2023-02-28T12:06:25;6.00;99.90
34768;DHT22;21755;43.608;1.236;2023-02-28T12:20:28;5.80;99.90
34768;DHT22;21755;43.608;1.236;2023-02-28T12:26:19;5.90;99.90
34768;DHT22;21755;43.608;1.236;2023-02-28T12:28:53;5.90;99.90
34768;DHT22;21755;43.608;1.236;2023-02-28T12:31:30;6.00;99.90
34768;DHT22;21755;43.608;1.236;2023-02-28T12:34:03;5.90;99.90
34768;DHT22;21755;43.608;1.236;2023-02-28T12:36:30;5.80;99.90
34768;DHT22;21755;43.608;1.236;2023-02-28T12:39:06;5.70;99.50
34768;DHT22;21755;43.608;1.236;2023-02-28T12:44:20;5.60;99.90
34768;DHT22;21755;43.608;1.236;2023-02-28T12:46:51;5.70;99.90
34768;DHT22;21755;43.608;1.236;2023-02-28T12:52:00;5.60;99.10
34768;DHT22;21755;43.608;1.236;2023-02-28T12:54:42;5.60;99.60
34768;DHT22;21755;43.608;1.236;2023-02-28T12:59:59;5.80;99.90
34768;DHT22;21755;43.608;1.236;2023-02-28T13:11:06;5.40;98.60
34768;DHT22;21755;43.608;1.236;2023-02-28T13:13:33;5.40;98.40
34768;DHT22;21755;43.608;1.236;2023-02-28T13:18:44;5.80;99.40
34768;DHT22;21755;43.608;1.236;2023-02-28T13:21:30;6.10;97.80
34768;DHT22;21755;43.608;1.236;2023-02-28T13:24:04;6.30;98.20
34768;DHT22;21755;43.608;1.236;2023-02-28T13:31:27;6.40;96.50
34768;DHT22;21755;43.608;1.236;2023-02-28T13:36:32;6.60;95.80
34768;DHT22;21755;43.608;1.236;2023-02-28T13:46:33;6.90;96.00
34768;DHT22;21755;43.608;1.236;2023-02-28T13:55:02;6.80;93.90
34768;DHT22;21755;43.608;1.236;2023-02-28T14:06:16;7.10;93.80
34768;DHT22;21755;43.608;1.236;2023-02-28T14:08:54;6.70;93.70
34768;DHT22;21755;43.608;1.236;2023-02-28T14:13:55;6.40;95.20
34768;DHT22;21755;43.608;1.236;2023-02-28T14:16:24;6.20;96.30
34768;DHT22;21755;43.608;1.236;2023-02-28T14:19:04;6.10;96.40
34768;DHT22;21755;43.608;1.236;2023-02-28T14:21:38;6.10;95.90
34768;DHT22;21755;43.608;1.236;2023-02-28T14:27:03;6.10;96.40
34768;DHT22;21755;43.608;1.236;2023-02-28T14:29:44;6.00;95.40
34768;DHT22;21755;43.608;1.236;2023-02-28T14:32:45;5.80;95.70
34768;DHT22;21755;43.608;1.236;2023-02-28T14:37:42;5.70;96.50
34768;DHT22;21755;43.608;1.236;2023-02-28T14:40:20;5.80;95.60
34768;DHT22;21755;43.608;1.236;2023-02-28T14:42:54;5.90;96.90
34768;DHT22;21755;43.608;1.236;2023-02-28T14:45:22;5.90;95.80
34768;DHT22;21755;43.608;1.236;2023-02-28T14:47:50;6.00;96.00
34768;DHT22;21755;43.608;1.236;2023-02-28T14:50:19;6.00;96.20
34768;DHT22;21755;43.608;1.236;2023-02-28T14:52:46;5.90;96.10
34768;DHT22;21755;43.608;1.236;2023-02-28T14:55:15;5.90;96.00
34768;DHT22;21755;43.608;1.236;2023-02-28T14:58:00;5.90;94.90
34768;DHT22;21755;43.608;1.236;2023-02-28T15:00:48;5.90;95.60
34768;DHT22;21755;43.608;1.236;2023-02-28T15:03:20;5.90;95.50
34768;DHT22;21755;43.608;1.236;2023-02-28T15:06:04;5.90;96.00
34768;DHT22;21755;43.608;1.236;2023-02-28T15:08:30;5.90;95.40
34768;DHT22;21755;43.608;1.236;2023-02-28T15:11:17;5.80;95.20
34768;DHT22;21755;43.608;1.236;2023-02-28T15:13:51;5.90;96.00
34768;DHT22;21755;43.608;1.236;2023-02-28T15:16:28;5.80;95.00
34768;DHT22;21755;43.608;1.236;2023-02-28T15:21:44;5.70;95.80
34768;DHT22;21755;43.608;1.236;2023-02-28T15:27:04;5.80;95.10
34768;DHT22;21755;43.608;1.236;2023-02-28T15:29:37;5.80;95.70
34768;DHT22;21755;43.608;1.236;2023-02-28T15:32:28;5.80;95.80
34768;DHT22;21755;43.608;1.236;2023-02-28T15:34:55;5.80;95.10
34768;DHT22;21755;43.608;1.236;2023-02-28T15:37:40;5.70;95.50
34768;DHT22;21755;43.608;1.236;2023-02-28T15:42:41;5.50;95.10
34768;DHT22;21755;43.608;1.236;2023-02-28T15:45:41;5.50;95.20
34768;DHT22;21755;43.608;1.236;2023-02-28T15:48:23;5.50;95.50
34768;DHT22;21755;43.608;1.236;2023-02-28T15:50:54;5.40;94.70
34768;DHT22;21755;43.608;1.236;2023-02-28T15:53:29;5.30;95.30
34768;DHT22;21755;43.608;1.236;2023-02-28T15:56:00;5.40;96.30
34768;DHT22;21755;43.608;1.236;2023-02-28T15:58:26;5.40;96.10
34768;DHT22;21755;43.608;1.236;2023-02-28T16:01:24;5.30;96.10
34768;DHT22;21755;43.608;1.236;2023-02-28T16:03:53;5.30;95.30
34768;DHT22;21755;43.608;1.236;2023-02-28T16:06:39;5.30;95.30
34768;DHT22;21755;43.608;1.236;2023-02-28T16:09:10;5.30;95.40
34768;DHT22;21755;43.608;1.236;2023-02-28T16:11:40;5.20;95.20
34768;DHT22;21755;43.608;1.236;2023-02-28T16:14:11;5.20;95.40
34768;DHT22;21755;43.608;1.236;2023-02-28T16:16:43;5.20;96.20
34768;DHT22;21755;43.608;1.236;2023-02-28T16:19:10;5.30;96.30
34768;DHT22;21755;43.608;1.236;2023-02-28T16:21:36;5.30;95.70
34768;DHT22;21755;43.608;1.236;2023-02-28T16:24:02;5.20;95.80
34768;DHT22;21755;43.608;1.236;2023-02-28T16:26:28;5.20;95.70
34768;DHT22;21755;43.608;1.236;2023-02-28T16:28:54;5.20;95.30
34768;DHT22;21755;43.608;1.236;2023-02-28T16:31:20;5.20;95.60
34768;DHT22;21755;43.608;1.236;2023-02-28T16:33:47;5.20;95.60
34768;DHT22;21755;43.608;1.236;2023-02-28T16:36:18;5.10;95.30
34768;DHT22;21755;43.608;1.236;2023-02-28T16:38:44;5.10;95.10
34768;DHT22;21755;43.608;1.236;2023-02-28T16:41:14;5.10;95.10
34768;DHT22;21755;43.608;1.236;2023-02-28T16:43:45;5.10;95.90
34768;DHT22;21755;43.608;1.236;2023-02-28T16:46:13;5.10;95.20
34768;DHT22;21755;43.608;1.236;2023-02-28T16:48:39;5.10;95.80
34768;DHT22;21755;43.608;1.236;2023-02-28T16:51:11;5.10;96.10
34768;DHT22;21755;43.608;1.236;2023-02-28T16:53:37;5.00;96.00
34768;DHT22;21755;43.608;1.236;2023-02-28T16:56:03;5.00;96.10
34768;DHT22;21755;43.608;1.236;2023-02-28T16:58:29;5.00;96.30
34768;DHT22;21755;43.608;1.236;2023-02-28T17:00:55;4.90;96.20
34768;DHT22;21755;43.608;1.236;2023-02-28T17:03:26;4.90;96.40
34768;DHT22;21755;43.608;1.236;2023-02-28T17:05:52;4.90;96.10
34768;DHT22;21755;43.608;1.236;2023-02-28T17:08:18;4.90;96.20
34768;DHT22;21755;43.608;1.236;2023-02-28T17:10:45;4.80;96.20
34768;DHT22;21755;43.608;1.236;2023-02-28T17:13:11;4.80;96.80
34768;DHT22;21755;43.608;1.236;2023-02-28T17:15:38;4.80;97.00
34768;DHT22;21755;43.608;1.236;2023-02-28T17:18:05;4.70;97.20
34768;DHT22;21755;43.608;1.236;2023-02-28T17:20:31;4.70;97.50
34768;DHT22;21755;43.608;1.236;2023-02-28T17:22:57;4.70;97.40
34768;DHT22;21755;43.608;1.236;2023-02-28T17:25:23;4.60;97.80
34768;DHT22;21755;43.608;1.236;2023-02-28T17:27:49;4.60;97.70
34768;DHT22;21755;43.608;1.236;2023-02-28T17:30:24;4.60;98.60
34768;DHT22;21755;43.608;1.236;2023-02-28T17:32:50;4.60;99.20
34768;DHT22;21755;43.608;1.236;2023-02-28T17:35:16;4.50;99.10
34768;DHT22;21755;43.608;1.236;2023-02-28T17:37:42;4.40;99.10
34768;DHT22;21755;43.608;1.236;2023-02-28T17:40:26;4.40;98.70
34768;DHT22;21755;43.608;1.236;2023-02-28T17:42:52;4.40;99.50
34768;DHT22;21755;43.608;1.236;2023-02-28T17:45:18;4.40;99.70
34768;DHT22;21755;43.608;1.236;2023-02-28T17:47:48;4.30;99.80
34768;DHT22;21755;43.608;1.236;2023-02-28T17:50:16;4.30;99.20
34768;DHT22;21755;43.608;1.236;2023-02-28T17:52:43;4.30;99.90
34768;DHT22;21755;43.608;1.236;2023-02-28T17:55:09;4.20;99.90
34768;DHT22;21755;43.608;1.236;2023-02-28T17:57:35;4.20;99.90
34768;DHT22;21755;43.608;1.236;2023-02-28T18:00:01;4.20;99.90
34768;DHT22;21755;43.608;1.236;2023-02-28T18:02:32;4.20;99.90
34768;DHT22;21755;43.608;1.236;2023-02-28T18:04:58;4.20;99.90
34768;DHT22;21755;43.608;1.236;2023-02-28T18:07:24;4.20;99.90
34768;DHT22;21755;43.608;1.236;2023-02-28T18:09:50;4.20;99.90
34768;DHT22;21755;43.608;1.236;2023-02-28T18:12:16;4.20;99.90
34768;DHT22;21755;43.608;1.236;2023-02-28T18:14:42;4.10;99.90
34768;DHT22;21755;43.608;1.236;2023-02-28T18:17:11;4.10;99.90
34768;DHT22;21755;43.608;1.236;2023-02-28T18:19:38;4.10;99.90
34768;DHT22;21755;43.608;1.236;2023-02-28T18:22:04;4.10;99.90